createdAt,value
2024-01-15T00:01:45.929Z,11.50
2024-01-15T00:04:14.714Z,13.32
2024-01-15T00:06:43.500Z,10.25
2024-01-15T00:09:11.931Z,9.13
2024-01-15T00:11:40.372Z,8.40
2024-01-15T00:14:10.339Z,8.43
2024-01-15T00:16:38.731Z,8.80
2024-01-15T00:19:07.206Z,10.35
2024-01-15T00:21:35.666Z,9.95
2024-01-15T00:24:03.278Z,12.77
2024-01-15T00:26:31.715Z,12.45
2024-01-15T00:29:00.087Z,10.88
2024-01-15T00:31:31.116Z,9.60
2024-01-15T00:34:00.061Z,8.90
2024-01-15T00:36:28.842Z,7.97
2024-01-15T00:38:57.330Z,7.72
2024-01-15T00:41:25.651Z,8.77
2024-01-15T00:43:54.108Z,11.10
2024-01-15T00:46:22.583Z,11.38
2024-01-15T00:48:52.438Z,9.05
2024-01-15T00:51:20.918Z,9.13
2024-01-15T00:53:49.291Z,8.90
2024-01-15T00:56:17.647Z,8.20
2024-01-15T00:58:46.057Z,8.73
2024-01-15T01:01:14.535Z,8.85
2024-01-15T01:03:43.274Z,7.85
2024-01-15T01:06:13.018Z,9.65
2024-01-15T01:08:41.434Z,9.50
2024-01-15T01:11:10.851Z,8.57
2024-01-15T01:13:39.184Z,6.80
2024-01-15T01:16:07.691Z,7.50
2024-01-15T01:18:36.224Z,8.43
2024-01-15T01:21:05.081Z,7.93
2024-01-15T01:23:34.861Z,8.27
2024-01-15T01:26:03.276Z,7.40
2024-01-15T01:28:31.635Z,9.05
2024-01-15T01:31:00.076Z,8.40
2024-01-15T01:33:28.642Z,8.75
2024-01-15T01:35:57.569Z,8.35
2024-01-15T01:38:25.956Z,7.97
2024-01-15T01:40:55.679Z,7.68
2024-01-15T01:43:24.058Z,9.52
2024-01-15T01:45:52.524Z,9.63
2024-01-15T01:48:21.174Z,8.68
2024-01-15T01:50:49.923Z,9.15
2024-01-15T01:53:18.584Z,8.68
2024-01-15T01:55:48.422Z,8.60
2024-01-15T01:58:18.512Z,10.18
2024-01-15T02:00:47.709Z,10.18
2024-01-15T02:03:16.806Z,8.57
2024-01-15T02:05:46.784Z,9.80
2024-01-15T02:08:15.195Z,10.65
2024-01-15T02:10:43.531Z,9.65
2024-01-15T02:13:11.875Z,9.75
2024-01-15T02:15:42.152Z,8.40
2024-01-15T02:18:10.850Z,8.38
2024-01-15T02:20:39.444Z,8.93
2024-01-15T02:23:12.644Z,8.85
2024-01-15T02:25:43.431Z,8.98
2024-01-15T02:28:12.844Z,8.43
2024-01-15T02:30:43.290Z,7.05
2024-01-15T02:33:13.593Z,7.88
2024-01-15T02:35:42.431Z,7.18
2024-01-15T02:38:12.114Z,7.32
2024-01-15T02:40:40.888Z,6.20
2024-01-15T02:43:09.295Z,8.15
2024-01-15T02:45:37.772Z,7.50
2024-01-15T02:48:06.773Z,8.55
2024-01-15T02:50:35.222Z,6.88
2024-01-15T02:53:03.707Z,6.47
2024-01-15T02:55:33.462Z,6.70
2024-01-15T02:58:01.798Z,6.28
2024-01-15T03:00:30.247Z,6.45
2024-01-15T03:02:58.913Z,6.40
2024-01-15T03:05:27.417Z,6.30
2024-01-15T03:07:55.779Z,6.68
2024-01-15T03:10:24.116Z,5.78
2024-01-15T03:12:53.907Z,6.63
2024-01-15T03:15:22.301Z,7.13
2024-01-15T03:17:50.720Z,5.80
2024-01-15T03:20:19.058Z,6.18
2024-01-15T03:22:47.430Z,6.35
2024-01-15T03:25:15.825Z,5.55
2024-01-15T03:27:44.383Z,6.50
2024-01-15T03:30:15.676Z,6.10
2024-01-15T03:32:44.271Z,6.05
2024-01-15T03:35:12.725Z,6.22
2024-01-15T03:37:41.149Z,5.72
2024-01-15T03:40:10.881Z,6.18
2024-01-15T03:42:39.342Z,5.00
2024-01-15T03:45:08.414Z,5.55
2024-01-15T03:47:38.155Z,6.40
2024-01-15T03:50:07.281Z,5.88
2024-01-15T03:52:35.620Z,6.00
2024-01-15T03:55:04.261Z,5.47
2024-01-15T03:57:32.689Z,5.97
2024-01-15T04:00:01.148Z,5.80
2024-01-15T04:02:29.542Z,5.80
2024-01-15T04:04:59.305Z,5.15
2024-01-15T04:07:27.704Z,5.68
2024-01-15T04:09:56.117Z,5.13
2024-01-15T04:12:24.553Z,5.80
2024-01-15T04:14:52.956Z,5.88
2024-01-15T04:17:22.617Z,4.47
2024-01-15T04:19:51.175Z,4.90
2024-01-15T04:22:20.915Z,5.30
2024-01-15T04:24:49.317Z,4.80
2024-01-15T04:27:17.861Z,4.45
2024-01-15T04:29:46.647Z,4.57
2024-01-15T04:32:14.994Z,4.25
2024-01-15T04:34:43.525Z,4.63
2024-01-15T04:37:12.042Z,4.30
2024-01-15T04:39:41.859Z,4.38
2024-01-15T04:42:10.358Z,4.40
2024-01-15T04:44:38.830Z,4.13
2024-01-15T04:47:07.246Z,4.30
2024-01-15T04:49:35.771Z,4.32
2024-01-15T04:52:04.478Z,3.90
2024-01-15T04:54:32.916Z,3.47
2024-01-15T04:57:03.435Z,4.05
2024-01-15T04:59:31.797Z,3.40
2024-01-15T05:02:00.154Z,3.78
2024-01-15T05:04:28.800Z,3.90
2024-01-15T05:06:57.611Z,3.25
2024-01-15T05:09:26.123Z,3.42
2024-01-15T05:11:54.503Z,3.25
2024-01-15T05:14:24.193Z,2.75
2024-01-15T05:16:52.658Z,2.95
2024-01-15T05:19:21.340Z,2.88
2024-01-15T05:21:49.888Z,3.75
2024-01-15T05:24:18.597Z,3.05
2024-01-15T05:26:47.027Z,3.15
2024-01-15T05:29:15.464Z,3.50
2024-01-15T05:31:45.413Z,2.92
2024-01-15T05:34:14.020Z,3.20
2024-01-15T05:36:42.481Z,2.83
2024-01-15T05:39:10.873Z,3.60
2024-01-15T05:41:39.290Z,2.95
2024-01-15T05:44:07.624Z,3.60
2024-01-15T05:46:35.962Z,3.20
2024-01-15T05:49:05.908Z,2.90
2024-01-15T05:51:34.388Z,2.97
2024-01-15T05:54:02.755Z,3.17
2024-01-15T05:56:31.137Z,2.65
2024-01-15T05:58:59.601Z,2.70
2024-01-15T06:01:28.043Z,3.17
2024-01-15T06:03:56.571Z,3.00
2024-01-15T06:06:26.347Z,2.45
2024-01-15T06:08:54.705Z,2.97
2024-01-15T06:11:24.529Z,3.08
2024-01-15T06:13:55.785Z,3.00
2024-01-15T06:16:25.636Z,2.50
2024-01-15T06:18:54.154Z,2.50
2024-01-15T06:21:22.642Z,3.03
2024-01-15T06:23:52.406Z,3.08
2024-01-15T06:26:21.063Z,2.97
2024-01-15T06:28:49.441Z,3.22
2024-01-15T06:31:17.961Z,2.25
2024-01-15T06:33:48.490Z,2.30
2024-01-15T06:36:17.938Z,2.63
2024-01-15T06:38:46.422Z,2.40
2024-01-15T06:41:16.207Z,3.05
2024-01-15T06:43:44.591Z,2.63
2024-01-15T06:46:12.999Z,2.95
2024-01-15T06:48:41.501Z,2.33
2024-01-15T06:51:09.980Z,2.70
2024-01-15T06:53:38.867Z,2.50
2024-01-15T06:56:07.476Z,2.38
2024-01-15T06:58:37.212Z,2.80
2024-01-15T07:01:06.004Z,2.70
2024-01-15T07:03:34.788Z,2.80
2024-01-15T07:06:03.272Z,2.65
2024-01-15T07:08:31.827Z,2.10
2024-01-15T07:11:00.190Z,3.40
2024-01-15T07:13:28.574Z,2.78
2024-01-15T07:15:58.760Z,2.72
2024-01-15T07:18:27.347Z,2.78
2024-01-15T07:20:55.937Z,3.58
2024-01-15T07:23:24.284Z,2.72
2024-01-15T07:25:52.652Z,2.83
2024-01-15T07:28:21.191Z,2.38
2024-01-15T07:30:49.705Z,2.20
2024-01-15T07:33:19.663Z,2.17
2024-01-15T07:35:48.174Z,2.70
2024-01-15T07:38:16.528Z,2.33
2024-01-15T07:40:44.913Z,2.35
2024-01-15T07:43:13.286Z,2.40
2024-01-15T07:45:44.818Z,3.15
2024-01-15T07:48:14.578Z,3.15
2024-01-15T07:50:44.370Z,2.47
2024-01-15T07:53:12.704Z,1.92
2024-01-15T07:55:41.096Z,2.33
2024-01-15T07:58:15.930Z,2.42
2024-01-15T08:00:45.980Z,2.30
2024-01-15T08:03:16.356Z,2.55
2024-01-15T08:05:46.206Z,2.30
2024-01-15T08:08:14.612Z,1.92
2024-01-15T08:10:43.007Z,2.72
2024-01-15T08:13:11.386Z,2.30
2024-01-15T08:15:39.821Z,2.00
2024-01-15T08:18:08.430Z,2.50
2024-01-15T08:20:36.890Z,2.60
2024-01-15T08:23:06.825Z,2.20
2024-01-15T08:25:35.203Z,2.40
2024-01-15T08:28:03.635Z,2.40
2024-01-15T08:30:32.231Z,2.80
2024-01-15T08:33:07.865Z,2.85
2024-01-15T08:35:39.784Z,2.60
2024-01-15T08:38:09.998Z,2.42
2024-01-15T08:40:38.471Z,2.35
2024-01-15T08:43:07.752Z,2.90
2024-01-15T08:45:36.355Z,2.33
2024-01-15T08:48:05.180Z,1.95
2024-01-15T08:50:34.374Z,2.10
2024-01-15T08:53:02.781Z,2.35
2024-01-15T08:55:32.486Z,3.05
2024-01-15T08:58:00.941Z,2.40
2024-01-15T09:00:29.485Z,1.95
2024-01-15T09:02:58.073Z,2.08
2024-01-15T09:05:26.610Z,2.20
2024-01-15T09:07:55.024Z,2.00
2024-01-15T09:10:23.360Z,2.15
2024-01-15T09:12:53.438Z,2.78
2024-01-15T09:15:21.876Z,2.72
2024-01-15T09:17:50.300Z,2.25
2024-01-15T09:20:19.524Z,3.55
2024-01-15T09:22:47.907Z,2.05
2024-01-15T09:25:16.380Z,2.30
2024-01-15T09:27:44.895Z,2.60
2024-01-15T09:30:15.418Z,2.42
2024-01-15T09:32:44.026Z,1.85
2024-01-15T09:35:12.770Z,2.50
2024-01-15T09:37:47.318Z,2.50
2024-01-15T09:40:17.853Z,2.70
2024-01-15T09:42:48.435Z,2.42
2024-01-15T09:45:18.822Z,3.15
2024-01-15T09:47:47.644Z,2.90
2024-01-15T09:50:17.136Z,2.03
2024-01-15T09:52:47.014Z,3.00
2024-01-15T09:55:16.450Z,2.50
2024-01-15T09:57:46.359Z,2.78
2024-01-15T10:00:15.612Z,2.28
2024-01-15T10:02:45.387Z,2.33
2024-01-15T10:05:13.994Z,2.50
2024-01-15T10:07:43.328Z,2.53
2024-01-15T10:10:13.264Z,2.50
2024-01-15T10:12:42.083Z,2.80
2024-01-15T10:15:12.977Z,2.42
2024-01-15T10:17:42.763Z,2.45
2024-01-15T10:20:14.375Z,2.85
2024-01-15T10:22:44.531Z,2.33
2024-01-15T10:25:13.975Z,2.40
2024-01-15T10:27:43.398Z,2.50
2024-01-15T10:30:14.606Z,2.20
2024-01-15T10:32:43.205Z,2.35
2024-01-15T10:35:13.969Z,2.20
2024-01-15T10:37:43.801Z,2.40
2024-01-15T10:40:15.025Z,2.10
2024-01-15T10:42:43.433Z,2.92
2024-01-15T10:45:11.871Z,2.47
2024-01-15T10:47:41.051Z,2.40
2024-01-15T10:50:10.462Z,2.83
2024-01-15T10:52:41.990Z,2.40
2024-01-15T10:55:16.040Z,2.30
2024-01-15T10:57:50.631Z,2.60
2024-01-15T11:00:20.283Z,3.00
2024-01-15T11:02:49.085Z,2.15
2024-01-15T11:05:19.485Z,1.83
2024-01-15T11:07:50.204Z,2.17
2024-01-15T11:10:40.745Z,2.13
2024-01-15T11:13:11.801Z,2.40
2024-01-15T11:15:58.654Z,2.67
2024-01-15T11:18:29.269Z,2.00
2024-01-15T11:21:23.143Z,1.88
2024-01-15T11:23:54.919Z,1.85
2024-01-15T11:26:34.875Z,2.10
2024-01-15T11:29:05.210Z,1.70
2024-01-15T11:32:15.882Z,1.67
2024-01-15T11:34:54.232Z,2.33
2024-01-15T11:37:24.715Z,2.38
2024-01-15T11:39:55.989Z,2.40
2024-01-15T11:42:25.109Z,2.30
2024-01-15T11:44:55.607Z,2.00
2024-01-15T11:48:03.892Z,2.13
2024-01-15T11:50:32.958Z,2.28
2024-01-15T11:53:06.873Z,1.65
2024-01-15T11:55:40.857Z,2.50
2024-01-15T11:58:11.739Z,2.33
2024-01-15T12:00:42.795Z,2.47
2024-01-15T12:03:11.878Z,3.03
2024-01-15T12:05:40.890Z,2.15
2024-01-15T12:08:12.045Z,2.65
2024-01-15T12:10:43.394Z,2.47
2024-01-15T12:13:14.650Z,2.50
2024-01-15T12:15:44.474Z,2.22
2024-01-15T12:18:15.566Z,2.50
2024-01-15T12:20:45.337Z,2.10
2024-01-15T12:23:14.550Z,2.30
2024-01-15T12:25:44.541Z,2.40
2024-01-15T12:28:13.057Z,2.80
2024-01-15T12:30:41.620Z,2.40
2024-01-15T12:33:11.054Z,2.20
2024-01-15T12:35:39.711Z,2.58
2024-01-15T12:38:08.117Z,2.03
2024-01-15T12:40:37.462Z,2.13
2024-01-15T12:43:09.202Z,2.47
2024-01-15T12:45:39.337Z,2.17
2024-01-15T12:48:08.493Z,2.10
2024-01-15T12:50:37.098Z,1.80
2024-01-15T12:53:06.061Z,2.10
2024-01-15T12:55:35.554Z,2.53
2024-01-15T12:58:04.044Z,2.33
2024-01-15T13:00:33.839Z,2.40
2024-01-15T13:03:04.625Z,2.63
2024-01-15T13:05:35.249Z,2.10
2024-01-15T13:08:04.602Z,2.40
2024-01-15T13:10:33.721Z,2.30
2024-01-15T13:13:02.955Z,2.80
2024-01-15T13:15:32.477Z,3.50
2024-01-15T13:18:02.314Z,3.35
2024-01-15T13:20:30.870Z,3.08
2024-01-15T13:22:59.305Z,3.60
2024-01-15T13:25:27.660Z,4.15
2024-01-15T13:27:56.064Z,4.70
2024-01-15T13:30:24.515Z,3.05
2024-01-15T13:32:53.685Z,3.67
2024-01-15T13:35:23.458Z,2.97
2024-01-15T13:37:51.808Z,2.85
2024-01-15T13:40:21.235Z,2.85
2024-01-15T13:42:50.179Z,2.47
2024-01-15T13:45:19.023Z,2.38
2024-01-15T13:47:47.551Z,2.25
2024-01-15T13:50:16.485Z,2.53
2024-01-15T13:52:46.346Z,2.60
2024-01-15T13:55:14.772Z,2.55
2024-01-15T13:57:43.421Z,3.03
2024-01-15T14:00:14.453Z,2.80
2024-01-15T14:02:43.042Z,2.40
2024-01-15T14:05:13.768Z,2.38
2024-01-15T14:07:42.660Z,2.22
2024-01-15T14:10:12.593Z,2.10
2024-01-15T14:12:41.611Z,2.95
2024-01-15T14:15:10.610Z,2.53
2024-01-15T14:17:39.909Z,2.47
2024-01-15T14:20:10.953Z,2.08
2024-01-15T14:22:39.471Z,2.38
2024-01-15T14:25:08.274Z,2.40
2024-01-15T14:27:38.521Z,2.33
2024-01-15T14:30:09.692Z,2.10
2024-01-15T14:32:38.625Z,2.22
2024-01-15T14:35:09.368Z,2.28
2024-01-15T14:37:37.770Z,2.60
2024-01-15T14:40:08.746Z,2.65
2024-01-15T14:42:38.935Z,2.63
2024-01-15T14:45:13.116Z,2.20
2024-01-15T14:47:42.411Z,2.83
2024-01-15T14:50:13.359Z,2.00
2024-01-15T14:52:43.176Z,2.28
2024-01-15T14:55:12.156Z,2.10
2024-01-15T14:57:42.031Z,2.00
2024-01-15T15:00:10.806Z,2.28
2024-01-15T15:02:39.647Z,2.42
2024-01-15T15:05:09.043Z,2.20
2024-01-15T15:07:38.444Z,2.38
2024-01-15T15:10:08.255Z,2.47
2024-01-15T15:12:36.789Z,2.60
2024-01-15T15:15:10.865Z,2.60
2024-01-15T15:17:41.470Z,2.10
2024-01-15T15:20:11.087Z,2.40
2024-01-15T15:22:39.602Z,2.45
2024-01-15T15:25:09.771Z,2.42
2024-01-15T15:27:38.924Z,2.67
2024-01-15T15:30:09.995Z,2.92
2024-01-15T15:32:38.453Z,2.50
2024-01-15T15:35:07.676Z,2.42
2024-01-15T15:37:37.032Z,3.22
2024-01-15T15:40:10.025Z,3.42
2024-01-15T15:42:39.269Z,2.38
2024-01-15T15:45:10.666Z,2.60
2024-01-15T15:47:39.738Z,2.60
2024-01-15T15:50:09.632Z,2.78
2024-01-15T15:52:38.099Z,3.33
2024-01-15T15:57:37.182Z,2.95
2024-01-15T16:00:07.740Z,3.90
2024-01-15T16:02:37.588Z,3.55
2024-01-15T16:05:10.713Z,4.00
2024-01-15T16:07:39.348Z,3.70
2024-01-15T16:10:08.721Z,3.67
2024-01-15T16:12:37.157Z,3.40
2024-01-15T16:15:19.337Z,4.38
2024-01-15T16:23:17.146Z,3.83
2024-01-15T16:23:31.486Z,3.42
2024-01-15T16:24:04.282Z,3.33
2024-01-15T16:26:14.942Z,3.25
2024-01-15T16:28:43.733Z,3.28
2024-01-15T16:31:12.164Z,5.07
2024-01-15T16:33:43.713Z,8.13
2024-01-15T16:36:13.752Z,5.78
2024-01-15T16:38:42.235Z,3.45
2024-01-15T16:41:10.675Z,3.60
2024-01-15T16:43:39.317Z,3.80
2024-01-15T16:46:09.629Z,3.78
2024-01-15T16:48:38.160Z,7.43
2024-01-15T16:51:08.144Z,4.57
2024-01-15T16:53:37.000Z,3.50
2024-01-15T16:56:06.007Z,4.05
2024-01-15T16:58:35.477Z,3.95
2024-01-15T17:01:04.063Z,5.03
2024-01-15T17:03:32.900Z,4.05
2024-01-15T17:06:02.042Z,4.03
2024-01-15T17:08:31.901Z,4.53
2024-01-15T17:11:02.382Z,4.97
2024-01-15T17:13:31.195Z,4.90
2024-01-15T17:15:59.826Z,4.55
2024-01-15T17:18:28.420Z,4.47
2024-01-15T17:20:58.772Z,4.63
2024-01-15T17:23:27.140Z,4.47
2024-01-15T17:25:56.969Z,4.43
2024-01-15T17:28:26.438Z,4.28
2024-01-15T17:30:55.197Z,4.38
2024-01-15T17:33:23.696Z,4.47
2024-01-15T17:35:57.255Z,4.50
2024-01-15T17:38:25.953Z,3.37
2024-01-15T17:40:54.319Z,4.53
2024-01-15T17:43:24.071Z,3.85
2024-01-15T17:45:54.273Z,4.35
2024-01-15T17:48:24.419Z,5.20
2024-01-15T17:50:53.002Z,4.13
2024-01-15T17:53:21.466Z,4.90
2024-01-15T17:55:50.523Z,4.18
2024-01-15T17:58:18.942Z,5.35
2024-01-15T18:00:48.710Z,4.40
2024-01-15T18:03:17.269Z,4.30
2024-01-15T18:05:45.881Z,3.80
2024-01-15T18:08:14.439Z,3.67
2024-01-15T18:10:43.121Z,4.25
2024-01-15T18:13:11.571Z,4.88
2024-01-15T18:15:41.133Z,3.70
2024-01-15T18:18:11.043Z,3.95
2024-01-15T18:20:39.529Z,4.50
2024-01-15T18:23:07.921Z,3.83
2024-01-15T18:25:36.314Z,3.90
2024-01-15T18:28:05.012Z,3.85
2024-01-15T18:30:33.363Z,3.85
2024-01-15T18:33:02.181Z,3.60
2024-01-15T18:35:32.068Z,3.85
2024-01-15T18:38:00.693Z,5.20
2024-01-15T18:40:33.280Z,4.63
2024-01-15T18:43:01.642Z,3.92
2024-01-15T18:45:30.070Z,4.95
2024-01-15T18:47:58.580Z,4.40
2024-01-15T18:50:27.056Z,3.28
2024-01-15T18:52:56.937Z,3.83
2024-01-15T18:55:25.347Z,3.28
2024-01-15T18:57:54.811Z,3.72
2024-01-15T19:00:25.404Z,3.13
2024-01-15T19:02:58.832Z,4.32
2024-01-15T19:05:27.610Z,3.40
2024-01-15T19:07:57.712Z,2.85
2024-01-15T19:10:26.082Z,2.90
2024-01-15T19:12:54.451Z,2.55
2024-01-15T19:15:23.400Z,3.20
2024-01-15T19:17:51.918Z,3.72
2024-01-15T19:20:20.441Z,2.80
2024-01-15T19:22:49.461Z,2.90
2024-01-15T19:25:19.221Z,3.88
2024-01-15T19:27:48.140Z,3.00
2024-01-15T19:30:17.591Z,4.30
2024-01-15T19:32:46.371Z,3.00
2024-01-15T19:35:15.104Z,2.72
2024-01-15T19:37:43.502Z,2.58
2024-01-15T19:40:12.968Z,2.92
2024-01-15T19:42:42.899Z,3.00
2024-01-15T19:45:11.270Z,3.30
2024-01-15T19:47:39.764Z,3.20
2024-01-15T19:50:11.682Z,5.70
2024-01-15T19:52:40.522Z,7.80
2024-01-15T19:55:09.960Z,2.92
2024-01-15T19:57:38.364Z,3.00
2024-01-15T20:00:10.116Z,2.95
2024-01-15T20:02:38.801Z,2.22
2024-01-15T20:05:10.472Z,2.58
2024-01-15T20:07:39.275Z,2.20
2024-01-15T20:10:10.893Z,2.30
2024-01-15T20:12:41.222Z,2.25
2024-01-15T20:15:11.953Z,2.47
2024-01-15T20:17:40.473Z,4.10
2024-01-15T20:20:11.882Z,4.38
2024-01-15T20:22:40.641Z,3.35
2024-01-15T20:25:09.488Z,2.72
2024-01-15T20:27:38.096Z,3.75
2024-01-15T20:30:07.772Z,3.17
2024-01-15T20:32:38.258Z,2.75
2024-01-15T20:35:07.738Z,2.60
2024-01-15T20:37:36.089Z,2.38
2024-01-15T20:40:06.152Z,2.28
2024-01-15T20:42:34.576Z,3.10
2024-01-15T20:45:04.176Z,2.33
2024-01-15T20:47:33.190Z,2.75
2024-01-15T20:50:03.975Z,2.47
2024-01-15T20:52:32.350Z,3.10
2024-01-15T20:55:00.754Z,2.60
2024-01-15T20:57:29.113Z,2.90
2024-01-15T20:59:57.565Z,3.00
2024-01-15T21:02:25.948Z,2.67
2024-01-15T21:04:54.444Z,3.58
2024-01-15T21:07:24.360Z,2.70
2024-01-15T21:09:52.707Z,3.00
2024-01-15T21:12:21.090Z,3.50
2024-01-15T21:14:49.474Z,2.90
2024-01-15T21:17:17.865Z,2.80
2024-01-15T21:19:46.350Z,3.35
2024-01-15T21:22:14.805Z,3.78
2024-01-15T21:24:44.521Z,3.08
2024-01-15T21:27:12.893Z,3.17
2024-01-15T21:29:41.315Z,2.85
2024-01-15T21:32:09.687Z,3.22
2024-01-15T21:34:38.679Z,3.03
2024-01-15T21:37:07.133Z,3.05
2024-01-15T21:39:35.473Z,2.80
2024-01-15T21:42:05.673Z,3.72
2024-01-15T21:44:34.110Z,3.40
2024-01-15T21:47:03.097Z,3.72
2024-01-15T21:49:31.813Z,3.35
2024-01-15T21:52:00.209Z,2.22
2024-01-15T21:54:28.544Z,2.78
2024-01-15T21:56:57.077Z,3.15
2024-01-15T21:59:27.321Z,2.17
2024-01-15T22:01:57.254Z,2.13
2024-01-15T22:04:25.674Z,2.47
2024-01-15T22:06:54.242Z,2.67
2024-01-15T22:09:22.708Z,2.30
2024-01-15T22:11:51.130Z,2.70
2024-01-15T22:14:19.788Z,4.55
2024-01-15T22:16:49.562Z,2.55
2024-01-15T22:19:17.964Z,3.15
2024-01-15T22:21:47.031Z,4.35
2024-01-15T22:24:15.418Z,3.03
2024-01-15T22:26:43.906Z,2.67
2024-01-15T22:29:12.389Z,2.70
2024-01-15T22:31:42.193Z,3.75
2024-01-15T22:34:12.018Z,6.20
2024-01-15T22:36:40.522Z,5.10
2024-01-15T22:39:08.873Z,4.57
2024-01-15T22:41:37.218Z,2.30
2024-01-15T22:44:05.669Z,5.72
2024-01-15T22:46:34.057Z,3.35
2024-01-15T22:49:02.534Z,3.40
2024-01-15T22:51:32.427Z,3.53
2024-01-15T22:54:01.670Z,2.70
2024-01-15T22:56:30.053Z,3.58
2024-01-15T22:58:58.399Z,2.90
2024-01-15T23:01:26.881Z,2.67
2024-01-15T23:03:55.339Z,2.55
2024-01-15T23:06:25.143Z,2.60
2024-01-15T23:08:54.933Z,2.38
2024-01-15T23:11:24.400Z,2.50
2024-01-15T23:13:53.895Z,2.60
2024-01-15T23:16:22.365Z,2.58
2024-01-15T23:18:50.792Z,2.40
2024-01-15T23:21:19.347Z,3.30
2024-01-15T23:23:47.722Z,3.42
2024-01-15T23:26:19.885Z,3.10
2024-01-15T23:28:48.232Z,2.50
2024-01-15T23:31:16.581Z,2.42
2024-01-15T23:33:45.256Z,2.50
2024-01-15T23:36:13.866Z,2.38
2024-01-15T23:38:42.604Z,2.70
2024-01-15T23:41:21.004Z,2.65
2024-01-15T23:43:50.258Z,2.33
2024-01-15T23:46:19.739Z,3.72
2024-01-15T23:48:48.480Z,2.90
2024-01-15T23:51:16.892Z,2.70
2024-01-15T23:53:45.351Z,2.47
2024-01-15T23:56:14.177Z,2.22
2024-01-15T23:58:44.002Z,2.55
